createdAt,value
2017-12-09T00:01:47.238Z,94.70
2017-12-09T00:04:14.700Z,94.90
2017-12-09T00:06:42.154Z,95.00
2017-12-09T00:09:09.622Z,94.90
2017-12-09T00:11:37.090Z,94.90
2017-12-09T00:14:04.567Z,95.00
2017-12-09T00:16:32.044Z,95.00
2017-12-09T00:18:59.534Z,95.10
2017-12-09T00:21:27.014Z,95.00
2017-12-09T00:23:54.486Z,95.00
2017-12-09T00:26:22.718Z,94.90
2017-12-09T00:28:50.191Z,94.80
2017-12-09T00:31:17.699Z,94.90
2017-12-09T00:33:45.271Z,95.10
2017-12-09T00:36:12.770Z,95.20
2017-12-09T00:38:40.229Z,95.30
2017-12-09T00:41:07.692Z,95.40
2017-12-09T00:43:35.165Z,95.60
2017-12-09T00:46:02.621Z,95.70
2017-12-09T00:48:30.845Z,95.90
2017-12-09T00:50:58.313Z,95.90
2017-12-09T00:53:25.778Z,95.90
2017-12-09T00:55:53.293Z,95.90
2017-12-09T00:58:20.783Z,95.90
2017-12-09T01:00:48.263Z,95.60
2017-12-09T01:03:15.729Z,95.50
2017-12-09T01:05:43.214Z,95.50
2017-12-09T01:08:10.686Z,95.50
2017-12-09T01:10:38.151Z,95.30
2017-12-09T01:13:05.622Z,95.20
2017-12-09T01:15:44.928Z,95.10
2017-12-09T01:18:24.114Z,95.10
2017-12-09T01:20:51.571Z,95.30
2017-12-09T01:23:19.038Z,95.40
2017-12-09T01:25:46.519Z,95.50
2017-12-09T01:28:14.758Z,95.80
2017-12-09T01:30:42.245Z,95.80
2017-12-09T01:33:09.731Z,95.80
2017-12-09T01:35:37.230Z,95.90
2017-12-09T01:38:04.708Z,96.10
2017-12-09T01:40:32.942Z,96.30
2017-12-09T01:43:00.423Z,96.20
2017-12-09T01:45:27.902Z,96.40
2017-12-09T01:47:56.132Z,96.60
2017-12-09T01:50:23.607Z,96.60
2017-12-09T01:52:51.088Z,96.60
2017-12-09T01:55:18.560Z,97.00
2017-12-09T01:57:46.034Z,96.60
2017-12-09T02:00:13.495Z,96.60
2017-12-09T02:02:40.970Z,96.50
2017-12-09T02:05:08.430Z,96.40
2017-12-09T02:07:35.906Z,96.20
2017-12-09T02:10:03.376Z,96.10
2017-12-09T02:12:30.836Z,96.00
2017-12-09T02:14:58.285Z,95.90
2017-12-09T02:17:25.751Z,95.90
2017-12-09T02:19:53.210Z,95.80
2017-12-09T02:22:20.666Z,95.80
2017-12-09T02:24:48.127Z,95.70
2017-12-09T02:27:16.357Z,95.70
2017-12-09T02:29:43.850Z,95.70
2017-12-09T02:32:11.305Z,95.60
2017-12-09T02:34:38.759Z,95.30
2017-12-09T02:37:06.230Z,95.40
2017-12-09T02:39:33.751Z,95.30
2017-12-09T02:42:01.193Z,95.10
2017-12-09T02:44:28.649Z,95.00
2017-12-09T02:46:56.118Z,94.90
2017-12-09T02:49:23.578Z,94.90
2017-12-09T02:51:51.066Z,94.80
2017-12-09T02:54:19.269Z,95.00
2017-12-09T02:56:46.727Z,94.80
2017-12-09T02:59:14.193Z,94.90
2017-12-09T03:01:41.649Z,95.00
2017-12-09T03:04:09.119Z,95.10
2017-12-09T03:06:36.579Z,95.20
2017-12-09T03:09:04.063Z,95.40
2017-12-09T03:11:31.563Z,95.30
2017-12-09T03:13:59.009Z,95.40
2017-12-09T03:16:27.226Z,95.30
2017-12-09T03:18:54.675Z,95.30
2017-12-09T03:21:22.120Z,95.20
2017-12-09T03:23:49.576Z,95.30
2017-12-09T03:26:17.018Z,95.40
2017-12-09T03:28:44.468Z,95.60
2017-12-09T03:31:11.922Z,95.70
2017-12-09T03:33:39.378Z,95.90
2017-12-09T03:36:07.610Z,96.00
2017-12-09T03:38:35.070Z,96.20
2017-12-09T03:41:02.554Z,96.10
2017-12-09T03:43:30.779Z,96.40
2017-12-09T03:45:58.234Z,96.30
2017-12-09T03:48:25.671Z,96.20
2017-12-09T03:50:53.120Z,96.30
2017-12-09T03:53:20.559Z,96.40
2017-12-09T03:55:48.775Z,96.10
2017-12-09T03:58:16.211Z,96.10
2017-12-09T04:00:43.665Z,96.30
2017-12-09T04:03:11.138Z,96.40
2017-12-09T04:05:38.595Z,96.50
2017-12-09T04:08:06.040Z,96.50
2017-12-09T04:10:33.481Z,96.60
2017-12-09T04:13:02.461Z,96.80
2017-12-09T04:15:29.908Z,96.70
2017-12-09T04:17:57.366Z,96.80
2017-12-09T04:20:24.822Z,96.60
2017-12-09T04:22:52.290Z,96.80
2017-12-09T04:25:20.505Z,96.60
2017-12-09T04:27:47.955Z,96.60
2017-12-09T04:30:15.416Z,96.70
2017-12-09T04:32:42.869Z,96.80
2017-12-09T04:35:10.341Z,96.90
2017-12-09T04:37:37.789Z,96.80
2017-12-09T04:40:05.250Z,96.90
2017-12-09T04:42:32.708Z,96.80
2017-12-09T04:45:00.164Z,96.80
2017-12-09T04:47:27.602Z,96.90
2017-12-09T04:49:55.063Z,97.00
2017-12-09T04:52:22.498Z,97.20
2017-12-09T04:54:50.733Z,97.40
2017-12-09T04:57:18.175Z,97.40
2017-12-09T04:59:45.646Z,97.40
2017-12-09T05:02:13.106Z,97.50
2017-12-09T05:04:40.584Z,97.40
2017-12-09T05:07:08.042Z,97.40
2017-12-09T05:09:35.503Z,97.40
2017-12-09T05:12:03.777Z,97.60
2017-12-09T05:14:31.243Z,97.70
2017-12-09T05:16:59.457Z,97.50
2017-12-09T05:19:26.902Z,97.50
2017-12-09T05:21:54.379Z,97.50
2017-12-09T05:24:21.816Z,97.50
2017-12-09T05:26:49.267Z,97.40
2017-12-09T05:29:16.716Z,97.40
2017-12-09T05:31:44.170Z,97.50
2017-12-09T05:34:11.621Z,97.50
2017-12-09T05:36:39.841Z,97.30
2017-12-09T05:39:07.290Z,97.30
2017-12-09T05:41:34.735Z,97.10
2017-12-09T05:44:02.183Z,97.30
2017-12-09T05:46:29.633Z,97.50
2017-12-09T05:48:57.106Z,97.40
2017-12-09T05:51:24.555Z,97.40
2017-12-09T05:53:52.010Z,97.50
2017-12-09T05:56:19.487Z,97.50
2017-12-09T05:58:46.934Z,97.50
2017-12-09T06:01:14.398Z,97.60
2017-12-09T06:03:41.847Z,97.50
2017-12-09T06:06:09.657Z,97.60
2017-12-09T06:08:37.882Z,97.50
2017-12-09T06:11:05.347Z,97.40
2017-12-09T06:13:32.796Z,97.70
2017-12-09T06:16:00.254Z,97.90
2017-12-09T06:18:27.725Z,97.70
2017-12-09T06:20:55.170Z,97.30
2017-12-09T06:23:22.614Z,97.20
2017-12-09T06:25:50.087Z,97.30
2017-12-09T06:28:17.552Z,97.10
2017-12-09T06:30:45.104Z,96.90
2017-12-09T06:33:12.565Z,97.00
2017-12-09T06:35:40.023Z,97.10
2017-12-09T06:38:07.521Z,97.20
2017-12-09T06:40:35.007Z,97.20
2017-12-09T06:43:02.461Z,97.10
2017-12-09T06:45:29.917Z,97.40
2017-12-09T06:47:57.679Z,97.50
2017-12-09T06:50:25.138Z,97.70
2017-12-09T06:52:52.596Z,97.40
2017-12-09T06:55:20.054Z,97.40
2017-12-09T06:57:47.510Z,97.40
2017-12-09T07:00:14.969Z,97.40
2017-12-09T07:02:42.424Z,97.50
2017-12-09T07:05:11.515Z,97.30
2017-12-09T07:07:38.963Z,97.30
2017-12-09T07:10:07.177Z,97.10
2017-12-09T07:12:34.644Z,97.10
2017-12-09T07:15:03.094Z,97.10
2017-12-09T07:17:30.575Z,97.20
2017-12-09T07:19:58.032Z,97.20
2017-12-09T07:22:27.417Z,97.50
2017-12-09T07:24:54.894Z,97.20
2017-12-09T07:27:23.346Z,97.30
2017-12-09T07:29:50.805Z,97.60
2017-12-09T07:32:18.263Z,97.30
2017-12-09T07:34:45.729Z,97.40
2017-12-09T07:37:13.196Z,97.10
2017-12-09T07:39:40.659Z,97.30
2017-12-09T07:42:08.160Z,97.30
2017-12-09T07:44:36.710Z,97.20
2017-12-09T07:47:04.162Z,97.30
2017-12-09T07:49:31.630Z,97.40
2017-12-09T07:52:00.058Z,97.40
2017-12-09T07:54:27.507Z,97.40
2017-12-09T07:56:55.736Z,97.40
2017-12-09T07:59:23.193Z,97.40
2017-12-09T08:01:50.691Z,97.40
2017-12-09T08:04:18.922Z,97.30
2017-12-09T08:06:46.382Z,97.30
2017-12-09T08:09:13.838Z,97.20
2017-12-09T08:11:41.293Z,97.40
2017-12-09T08:14:09.731Z,97.40
2017-12-09T08:16:37.205Z,97.40
2017-12-09T08:19:05.424Z,97.10
2017-12-09T08:21:32.865Z,97.10
2017-12-09T08:24:00.323Z,97.00
2017-12-09T08:26:27.797Z,97.10
2017-12-09T08:28:55.261Z,97.10
2017-12-09T08:31:22.707Z,97.10
2017-12-09T08:33:50.156Z,97.20
2017-12-09T08:36:17.606Z,97.40
2017-12-09T08:38:45.063Z,97.60
2017-12-09T08:41:12.524Z,97.60
2017-12-09T08:43:40.017Z,97.70
2017-12-09T08:46:07.455Z,97.70
2017-12-09T08:48:34.906Z,97.80
2017-12-09T08:51:02.398Z,98.00
2017-12-09T08:53:29.878Z,98.00
2017-12-09T08:55:57.338Z,98.00
2017-12-09T08:58:24.794Z,98.00
2017-12-09T09:00:52.255Z,98.10
2017-12-09T09:03:21.033Z,98.00
2017-12-09T09:05:48.471Z,98.00
2017-12-09T09:08:15.965Z,98.00
2017-12-09T09:10:43.427Z,98.00
2017-12-09T09:13:10.878Z,98.10
2017-12-09T09:15:38.364Z,98.20
2017-12-09T09:18:05.826Z,98.30
2017-12-09T09:20:33.337Z,98.10
2017-12-09T09:23:00.798Z,97.80
2017-12-09T09:25:28.272Z,97.70
2017-12-09T09:27:55.740Z,97.70
2017-12-09T09:30:23.208Z,97.70
2017-12-09T09:32:50.678Z,97.40
2017-12-09T09:35:18.143Z,96.60
2017-12-09T09:37:46.358Z,97.20
2017-12-09T09:40:13.946Z,97.20
2017-12-09T09:42:41.392Z,97.20
2017-12-09T09:45:08.854Z,97.20
2017-12-09T09:47:36.315Z,97.10
2017-12-09T09:50:03.775Z,97.00
2017-12-09T09:52:31.231Z,97.00
2017-12-09T09:54:58.688Z,97.10
2017-12-09T09:57:26.168Z,97.20
2017-12-09T09:59:53.623Z,97.00
2017-12-09T10:02:21.844Z,97.20
2017-12-09T10:04:49.295Z,97.10
2017-12-09T10:07:16.771Z,97.10
2017-12-09T10:09:44.230Z,97.30
2017-12-09T10:12:11.677Z,97.40
2017-12-09T10:14:39.140Z,97.60
2017-12-09T10:17:06.614Z,97.60
2017-12-09T10:19:34.079Z,97.90
2017-12-09T10:22:01.538Z,97.60
2017-12-09T10:24:28.996Z,97.60
2017-12-09T10:26:56.451Z,97.60
2017-12-09T10:29:23.920Z,97.70
2017-12-09T10:31:52.156Z,97.70
2017-12-09T10:34:19.614Z,97.70
2017-12-09T10:36:47.074Z,97.80
2017-12-09T10:39:14.530Z,97.80
2017-12-09T10:41:42.022Z,97.60
2017-12-09T10:44:10.237Z,97.10
2017-12-09T10:46:37.727Z,97.20
2017-12-09T10:49:09.107Z,96.90
2017-12-09T10:51:37.335Z,96.50
2017-12-09T10:54:04.783Z,96.50
2017-12-09T10:56:32.262Z,96.50
2017-12-09T10:58:59.714Z,96.50
2017-12-09T11:01:27.183Z,96.80
2017-12-09T11:03:54.647Z,96.80
2017-12-09T11:06:22.115Z,96.50
2017-12-09T11:08:49.570Z,96.60
2017-12-09T11:11:17.039Z,96.30
2017-12-09T11:13:45.297Z,96.60
2017-12-09T11:16:12.786Z,96.60
2017-12-09T11:18:41.030Z,96.70
2017-12-09T11:21:08.495Z,96.70
2017-12-09T11:23:36.014Z,96.70
2017-12-09T11:26:03.479Z,96.90
2017-12-09T11:28:31.222Z,96.90
2017-12-09T11:30:58.681Z,96.80
2017-12-09T11:33:26.153Z,97.10
2017-12-09T11:35:53.612Z,96.90
2017-12-09T11:38:21.086Z,96.50
2017-12-09T11:40:48.563Z,95.90
2017-12-09T11:43:16.856Z,95.80
2017-12-09T11:45:44.403Z,95.80
2017-12-09T11:48:43.929Z,95.50
2017-12-09T11:51:11.435Z,95.40
2017-12-09T11:53:38.904Z,95.50
2017-12-09T11:56:06.707Z,95.90
2017-12-09T11:58:36.697Z,96.00
2017-12-09T12:01:04.439Z,96.20
2017-12-09T12:03:41.950Z,96.20
2017-12-09T12:06:13.943Z,96.20
2017-12-09T12:09:00.966Z,96.30
2017-12-09T12:11:31.484Z,96.20
2017-12-09T12:14:00.076Z,96.30
2017-12-09T12:16:35.088Z,96.50
2017-12-09T12:19:04.187Z,96.50
2017-12-09T12:21:31.657Z,96.40
2017-12-09T12:23:59.180Z,96.40
2017-12-09T12:26:26.659Z,96.20
2017-12-09T12:28:54.950Z,96.20
2017-12-09T12:31:22.438Z,96.10
2017-12-09T12:33:49.934Z,96.10
2017-12-09T12:36:17.414Z,96.20
2017-12-09T12:38:46.142Z,96.40
2017-12-09T12:41:14.469Z,96.30
2017-12-09T12:43:42.716Z,96.40
2017-12-09T12:46:10.171Z,96.40
2017-12-09T12:48:37.663Z,96.40
2017-12-09T12:51:05.898Z,96.30
2017-12-09T12:53:33.397Z,96.30
2017-12-09T12:56:01.665Z,96.20
2017-12-09T12:58:29.899Z,96.20
2017-12-09T13:00:57.383Z,96.20
2017-12-09T13:03:25.041Z,96.20
2017-12-09T13:05:52.494Z,96.30
2017-12-09T13:08:19.975Z,96.10
2017-12-09T13:10:47.455Z,96.00
2017-12-09T13:13:14.959Z,95.90
2017-12-09T13:15:42.432Z,95.80
2017-12-09T13:18:09.900Z,95.90
2017-12-09T13:20:38.230Z,95.90
2017-12-09T13:23:05.716Z,95.90
2017-12-09T13:25:33.192Z,96.00
2017-12-09T13:28:00.774Z,96.00
2017-12-09T13:30:28.349Z,96.00
2017-12-09T13:32:55.840Z,96.20
2017-12-09T13:35:23.348Z,96.20
2017-12-09T13:37:50.856Z,96.40
2017-12-09T13:40:18.457Z,96.70
2017-12-09T13:42:46.092Z,96.60
2017-12-09T13:45:13.651Z,96.60
2017-12-09T13:47:41.159Z,96.90
2017-12-09T13:50:08.663Z,97.20
2017-12-09T13:52:36.287Z,96.70
2017-12-09T13:55:03.907Z,96.50
2017-12-09T13:57:31.418Z,96.60
2017-12-09T13:59:58.921Z,96.70
2017-12-09T14:02:27.179Z,96.20
2017-12-09T14:04:54.675Z,96.10
2017-12-09T14:07:22.185Z,96.20
2017-12-09T14:09:49.756Z,96.50
2017-12-09T14:12:17.352Z,96.60
2017-12-09T14:14:44.998Z,96.60
2017-12-09T14:17:14.544Z,96.60
2017-12-09T14:19:42.212Z,96.50
2017-12-09T14:22:09.773Z,96.40
2017-12-09T14:24:37.275Z,96.70
2017-12-09T14:27:05.551Z,96.70
2017-12-09T14:29:33.805Z,96.50
2017-12-09T14:32:01.294Z,96.50
2017-12-09T14:34:29.554Z,96.20
2017-12-09T14:36:57.823Z,96.10
2017-12-09T14:39:25.288Z,96.10
2017-12-09T14:41:52.730Z,96.30
2017-12-09T14:44:20.202Z,96.30
2017-12-09T14:46:47.650Z,96.40
2017-12-09T14:49:15.112Z,96.70
2017-12-09T14:51:42.573Z,96.60
2017-12-09T14:54:10.125Z,96.30
2017-12-09T14:56:37.595Z,96.60
2017-12-09T14:59:05.820Z,96.20
2017-12-09T15:01:33.347Z,96.20
2017-12-09T15:04:00.836Z,96.50
2017-12-09T15:06:28.298Z,96.90
2017-12-09T15:08:55.777Z,97.20
2017-12-09T15:11:23.268Z,97.30
2017-12-09T15:13:50.720Z,97.50
2017-12-09T15:16:18.997Z,97.80
2017-12-09T15:18:46.504Z,97.80
2017-12-09T15:21:13.988Z,97.70
2017-12-09T15:23:41.480Z,97.50
2017-12-09T15:26:08.972Z,97.60
2017-12-09T15:28:36.462Z,97.70
2017-12-09T15:31:03.934Z,97.90
2017-12-09T15:33:32.166Z,97.80
2017-12-09T15:35:59.646Z,97.80
2017-12-09T15:38:27.111Z,97.80
2017-12-09T15:40:54.565Z,97.90
2017-12-09T15:43:22.026Z,98.00
2017-12-09T15:45:49.502Z,98.20
2017-12-09T15:48:17.750Z,97.80
2017-12-09T15:50:45.216Z,97.80
2017-12-09T15:53:12.697Z,97.80
2017-12-09T15:55:40.192Z,97.70
2017-12-09T15:58:07.739Z,97.40
2017-12-09T16:00:35.211Z,97.30
2017-12-09T16:03:02.702Z,97.30
2017-12-09T16:05:30.276Z,97.40
2017-12-09T16:07:58.514Z,97.30
2017-12-09T16:10:25.999Z,97.30
2017-12-09T16:12:53.477Z,97.50
2017-12-09T16:15:20.965Z,97.70
2017-12-09T16:17:48.453Z,97.70
2017-12-09T16:20:15.929Z,97.70
2017-12-09T16:22:44.485Z,97.70
2017-12-09T16:25:12.043Z,97.80
2017-12-09T16:27:39.546Z,97.80
2017-12-09T16:30:07.004Z,97.90
2017-12-09T16:32:35.232Z,97.50
2017-12-09T16:35:02.801Z,97.50
2017-12-09T16:37:30.250Z,97.60
2017-12-09T16:39:57.743Z,97.70
2017-12-09T16:42:25.970Z,98.10
2017-12-09T16:44:57.472Z,98.10
2017-12-09T16:47:26.503Z,98.40
2017-12-09T16:49:55.380Z,98.20
2017-12-09T16:52:25.261Z,98.20
2017-12-09T16:54:59.833Z,98.40
2017-12-09T16:57:30.364Z,98.90
2017-12-09T17:00:01.888Z,98.20
2017-12-09T17:02:31.582Z,97.70
2017-12-09T17:04:59.321Z,97.60
2017-12-09T17:07:26.847Z,97.50
2017-12-09T17:09:54.331Z,97.50
2017-12-09T17:12:21.786Z,97.60
2017-12-09T17:14:49.559Z,97.60
2017-12-09T17:17:17.508Z,97.60
2017-12-09T17:19:45.192Z,97.70
2017-12-09T17:22:12.670Z,97.50
2017-12-09T17:24:40.947Z,97.70
2017-12-09T17:27:09.172Z,97.70
2017-12-09T17:29:36.852Z,97.60
2017-12-09T17:32:04.320Z,97.80
2017-12-09T17:34:31.786Z,97.80
2017-12-09T17:37:04.227Z,97.90
2017-12-09T17:39:49.047Z,98.00
2017-12-09T17:42:28.230Z,98.20
2017-12-09T17:51:05.263Z,97.90
2017-12-09T17:57:04.558Z,98.10
2017-12-09T18:04:51.022Z,98.00
2017-12-09T18:07:18.478Z,98.00
2017-12-09T18:09:50.646Z,98.10
2017-12-09T18:12:18.107Z,98.10
2017-12-09T18:14:46.483Z,98.20
2017-12-09T18:17:13.942Z,98.20
2017-12-09T18:19:41.400Z,98.00
2017-12-09T18:22:08.854Z,97.70
2017-12-09T18:24:36.967Z,97.80
2017-12-09T18:27:05.253Z,97.90
2017-12-09T18:29:32.701Z,97.90
2017-12-09T18:32:00.178Z,97.70
2017-12-09T18:34:27.642Z,97.90
2017-12-09T18:36:55.190Z,97.70
2017-12-09T18:39:22.646Z,97.80
2017-12-09T18:45:24.179Z,97.70
2017-12-09T18:47:51.630Z,97.30
2017-12-09T18:50:19.864Z,97.20
2017-12-09T18:52:47.310Z,97.20
2017-12-09T18:55:22.964Z,97.30
2017-12-09T18:57:51.165Z,97.30
2017-12-09T19:00:18.955Z,97.10
2017-12-09T19:02:47.310Z,97.20
2017-12-09T19:05:16.310Z,97.20
2017-12-09T19:07:43.774Z,97.30
2017-12-09T19:10:11.231Z,96.90
2017-12-09T19:12:40.513Z,96.90
2017-12-09T19:15:08.286Z,96.90
2017-12-09T19:17:39.478Z,96.80
2017-12-09T19:20:10.700Z,96.60
2017-12-09T19:22:39.849Z,96.60
2017-12-09T19:25:09.075Z,96.60
2017-12-09T19:27:36.645Z,96.40
2017-12-09T19:30:05.754Z,96.60
2017-12-09T19:32:35.144Z,96.40
2017-12-09T19:35:03.545Z,96.50
2017-12-09T19:37:31.372Z,96.40
2017-12-09T19:40:01.761Z,96.30
2017-12-09T19:42:30.343Z,96.50
2017-12-09T19:44:59.214Z,96.30
2017-12-09T19:47:38.155Z,96.30
2017-12-09T19:50:06.537Z,96.20
2017-12-09T19:52:34.159Z,96.20
2017-12-09T19:55:02.938Z,95.80
2017-12-09T19:57:31.211Z,95.80
2017-12-09T19:59:59.638Z,96.00
2017-12-09T20:02:28.488Z,96.20
2017-12-09T20:04:56.246Z,96.20
2017-12-09T20:07:25.830Z,95.90
2017-12-09T20:09:54.540Z,95.90
2017-12-09T20:12:22.835Z,95.80
2017-12-09T20:14:52.830Z,95.80
2017-12-09T20:17:22.876Z,96.00
2017-12-09T20:19:51.235Z,95.90
2017-12-09T20:22:23.405Z,95.70
2017-12-09T20:24:52.247Z,95.90
2017-12-09T20:27:20.515Z,95.70
2017-12-09T20:29:48.298Z,95.70
2017-12-09T20:32:16.670Z,95.70
2017-12-09T20:34:44.146Z,95.40
2017-12-09T20:37:11.683Z,95.50
2017-12-09T20:39:39.155Z,95.50
2017-12-09T20:42:06.710Z,95.50
2017-12-09T20:44:34.185Z,95.60
2017-12-09T20:47:01.638Z,95.30
2017-12-09T20:49:29.103Z,95.50
2017-12-09T20:51:57.344Z,95.70
2017-12-09T20:54:24.800Z,95.70
2017-12-09T20:56:52.268Z,95.70
2017-12-09T20:59:19.870Z,95.70
2017-12-09T21:01:47.350Z,95.70
2017-12-09T21:04:14.823Z,95.80
2017-12-09T21:06:42.301Z,95.70
2017-12-09T21:09:09.789Z,95.60
2017-12-09T21:11:37.335Z,95.60
2017-12-09T21:14:04.852Z,95.60
2017-12-09T21:16:32.356Z,95.80
2017-12-09T21:18:59.864Z,95.70
2017-12-09T21:21:27.371Z,95.60
2017-12-09T21:23:54.990Z,95.70
2017-12-09T21:26:22.468Z,95.30
2017-12-09T21:28:49.930Z,95.40
2017-12-09T21:31:17.428Z,95.60
2017-12-09T21:33:45.931Z,95.60
2017-12-09T21:36:13.450Z,95.60
2017-12-09T21:38:40.951Z,95.50
2017-12-09T21:41:08.470Z,95.20
2017-12-09T21:43:36.180Z,95.20
2017-12-09T21:46:03.744Z,95.20
2017-12-09T21:48:31.262Z,95.20
2017-12-09T21:50:58.773Z,94.90
2017-12-09T21:53:26.359Z,94.90
2017-12-09T21:55:54.672Z,95.00
2017-12-09T21:58:22.160Z,94.90
2017-12-09T22:00:49.675Z,94.80
2017-12-09T22:03:19.457Z,94.70
2017-12-09T22:05:47.199Z,94.70
2017-12-09T22:08:15.691Z,94.70
2017-12-09T22:10:43.368Z,94.50
2017-12-09T22:13:13.237Z,94.80
2017-12-09T22:15:40.870Z,94.90
2017-12-09T22:18:08.523Z,94.50
2017-12-09T22:20:44.360Z,94.60
2017-12-09T22:23:12.040Z,94.50
2017-12-09T22:25:40.581Z,94.40
2017-12-09T22:28:08.265Z,94.70
2017-12-09T22:30:35.871Z,94.60
2017-12-09T22:33:03.679Z,94.70
2017-12-09T22:35:31.454Z,94.40
2017-12-09T22:37:59.117Z,94.40
2017-12-09T22:40:26.985Z,94.30
2017-12-09T22:42:56.993Z,94.30
2017-12-09T22:45:24.843Z,94.40
2017-12-09T22:47:53.651Z,94.10
2017-12-09T22:50:21.324Z,94.20
2017-12-09T22:52:50.069Z,94.30
2017-12-09T22:55:18.951Z,94.20
2017-12-09T22:57:46.575Z,94.30
2017-12-09T23:00:17.075Z,94.20
2017-12-09T23:02:45.479Z,94.30
2017-12-09T23:05:13.044Z,94.20
2017-12-09T23:07:41.548Z,94.30
2017-12-09T23:10:16.033Z,94.50
2017-12-09T23:12:45.079Z,94.50
2017-12-09T23:15:13.392Z,94.40
2017-12-09T23:17:41.075Z,94.10
2017-12-09T23:20:09.407Z,94.40
2017-12-09T23:22:46.891Z,94.40
2017-12-09T23:25:17.479Z,94.40
2017-12-09T23:27:45.038Z,94.50
2017-12-09T23:43:57.203Z,94.00
2017-12-09T23:46:25.099Z,94.10
2017-12-09T23:48:52.760Z,94.10
2017-12-09T23:51:20.382Z,94.00
2017-12-09T23:53:50.033Z,93.90
2017-12-09T23:56:17.552Z,93.90
2017-12-09T23:58:45.395Z,94.00
